sensor_id;sensor_type;location;lat;lon;timestamp;P1;durP1;ratioP1;P2;durP2;ratioP2
17915;SDS011;9083;49.156;8.982;2024-03-06T00:00:39;7.67;;;4.97;;
17915;SDS011;9083;49.156;8.982;2024-03-06T00:03:05;6.67;;;5.17;;
17915;SDS011;9083;49.156;8.982;2024-03-06T00:05:33;8.47;;;5.63;;
17915;SDS011;9083;49.156;8.982;2024-03-06T00:07:59;10.00;;;5.60;;
17915;SDS011;9083;49.156;8.982;2024-03-06T00:10:28;11.40;;;6.07;;
17915;SDS011;9083;49.156;8.982;2024-03-06T00:12:54;10.47;;;5.07;;
17915;SDS011;9083;49.156;8.982;2024-03-06T00:15:20;6.63;;;4.77;;
17915;SDS011;9083;49.156;8.982;2024-03-06T00:17:47;6.30;;;4.70;;
17915;SDS011;9083;49.156;8.982;2024-03-06T00:20:14;8.53;;;5.27;;
17915;SDS011;9083;49.156;8.982;2024-03-06T00:22:42;7.47;;;4.70;;
17915;SDS011;9083;49.156;8.982;2024-03-06T00:25:08;8.70;;;5.83;;
17915;SDS011;9083;49.156;8.982;2024-03-06T00:27:35;9.77;;;5.03;;
17915;SDS011;9083;49.156;8.982;2024-03-06T00:30:01;6.23;;;4.77;;
17915;SDS011;9083;49.156;8.982;2024-03-06T00:32:28;6.57;;;5.27;;
17915;SDS011;9083;49.156;8.982;2024-03-06T00:34:54;6.17;;;4.57;;
17915;SDS011;9083;49.156;8.982;2024-03-06T00:37:20;8.27;;;5.43;;
17915;SDS011;9083;49.156;8.982;2024-03-06T00:39:48;5.53;;;4.73;;
17915;SDS011;9083;49.156;8.982;2024-03-06T00:42:15;6.57;;;4.17;;
17915;SDS011;9083;49.156;8.982;2024-03-06T00:44:41;8.10;;;4.83;;
17915;SDS011;9083;49.156;8.982;2024-03-06T00:47:07;7.50;;;4.80;;
17915;SDS011;9083;49.156;8.982;2024-03-06T00:49:33;11.53;;;5.07;;
17915;SDS011;9083;49.156;8.982;2024-03-06T00:52:00;8.87;;;4.37;;
17915;SDS011;9083;49.156;8.982;2024-03-06T00:54:26;6.10;;;5.00;;
17915;SDS011;9083;49.156;8.982;2024-03-06T00:56:54;8.30;;;5.43;;
17915;SDS011;9083;49.156;8.982;2024-03-06T00:59:20;11.00;;;4.73;;
17915;SDS011;9083;49.156;8.982;2024-03-06T01:01:46;6.03;;;4.87;;
17915;SDS011;9083;49.156;8.982;2024-03-06T01:04:13;5.97;;;5.13;;
17915;SDS011;9083;49.156;8.982;2024-03-06T01:06:39;9.27;;;4.50;;
17915;SDS011;9083;49.156;8.982;2024-03-06T01:09:06;6.23;;;5.13;;
17915;SDS011;9083;49.156;8.982;2024-03-06T01:11:32;6.63;;;5.57;;
17915;SDS011;9083;49.156;8.982;2024-03-06T01:13:59;6.03;;;4.83;;
17915;SDS011;9083;49.156;8.982;2024-03-06T01:16:27;9.97;;;4.43;;
17915;SDS011;9083;49.156;8.982;2024-03-06T01:18:53;6.10;;;4.87;;
17915;SDS011;9083;49.156;8.982;2024-03-06T01:21:20;8.50;;;5.17;;
17915;SDS011;9083;49.156;8.982;2024-03-06T01:23:46;11.00;;;4.73;;
17915;SDS011;9083;49.156;8.982;2024-03-06T01:26:12;7.07;;;5.00;;
17915;SDS011;9083;49.156;8.982;2024-03-06T01:28:38;6.93;;;5.30;;
17915;SDS011;9083;49.156;8.982;2024-03-06T01:31:06;6.50;;;4.57;;
17915;SDS011;9083;49.156;8.982;2024-03-06T01:33:32;6.23;;;4.40;;
17915;SDS011;9083;49.156;8.982;2024-03-06T01:35:59;7.97;;;5.20;;
17915;SDS011;9083;49.156;8.982;2024-03-06T01:38:25;6.80;;;4.60;;
17915;SDS011;9083;49.156;8.982;2024-03-06T01:40:51;6.60;;;5.17;;
17915;SDS011;9083;49.156;8.982;2024-03-06T01:43:18;5.37;;;4.57;;
17915;SDS011;9083;49.156;8.982;2024-03-06T01:45:45;6.27;;;4.70;;
17915;SDS011;9083;49.156;8.982;2024-03-06T01:48:13;7.23;;;4.73;;
17915;SDS011;9083;49.156;8.982;2024-03-06T01:50:39;5.77;;;4.70;;
17915;SDS011;9083;49.156;8.982;2024-03-06T01:53:06;6.30;;;5.17;;
17915;SDS011;9083;49.156;8.982;2024-03-06T01:55:33;6.30;;;4.87;;
17915;SDS011;9083;49.156;8.982;2024-03-06T01:58:00;6.57;;;4.63;;
17915;SDS011;9083;49.156;8.982;2024-03-06T02:00:27;7.53;;;5.80;;
17915;SDS011;9083;49.156;8.982;2024-03-06T02:02:54;8.40;;;5.27;;
17915;SDS011;9083;49.156;8.982;2024-03-06T02:05:21;7.27;;;4.73;;
17915;SDS011;9083;49.156;8.982;2024-03-06T02:07:48;5.17;;;4.67;;
17915;SDS011;9083;49.156;8.982;2024-03-06T02:10:14;6.40;;;4.93;;
17915;SDS011;9083;49.156;8.982;2024-03-06T02:12:41;10.87;;;5.50;;
17915;SDS011;9083;49.156;8.982;2024-03-06T02:15:08;4.83;;;4.33;;
17915;SDS011;9083;49.156;8.982;2024-03-06T02:17:37;5.00;;;4.60;;
17915;SDS011;9083;49.156;8.982;2024-03-06T02:20:04;5.67;;;5.00;;
17915;SDS011;9083;49.156;8.982;2024-03-06T02:22:32;7.77;;;4.87;;
17915;SDS011;9083;49.156;8.982;2024-03-06T02:24:59;8.67;;;5.40;;
17915;SDS011;9083;49.156;8.982;2024-03-06T02:27:25;7.03;;;5.10;;
17915;SDS011;9083;49.156;8.982;2024-03-06T02:29:51;5.40;;;4.77;;
17915;SDS011;9083;49.156;8.982;2024-03-06T02:32:17;6.80;;;5.07;;
17915;SDS011;9083;49.156;8.982;2024-03-06T02:34:44;8.87;;;4.63;;
17915;SDS011;9083;49.156;8.982;2024-03-06T02:37:10;7.50;;;5.43;;
17915;SDS011;9083;49.156;8.982;2024-03-06T02:39:38;6.70;;;5.47;;
17915;SDS011;9083;49.156;8.982;2024-03-06T02:42:04;6.97;;;5.50;;
17915;SDS011;9083;49.156;8.982;2024-03-06T02:44:30;8.37;;;5.90;;
17915;SDS011;9083;49.156;8.982;2024-03-06T02:46:55;8.33;;;6.63;;
17915;SDS011;9083;49.156;8.982;2024-03-06T02:49:22;9.70;;;6.23;;
17915;SDS011;9083;49.156;8.982;2024-03-06T02:51:48;7.77;;;5.87;;
17915;SDS011;9083;49.156;8.982;2024-03-06T02:54:14;8.57;;;6.60;;
17915;SDS011;9083;49.156;8.982;2024-03-06T02:56:42;11.27;;;6.33;;
17915;SDS011;9083;49.156;8.982;2024-03-06T02:59:08;10.37;;;5.87;;
17915;SDS011;9083;49.156;8.982;2024-03-06T03:01:34;8.03;;;6.67;;
17915;SDS011;9083;49.156;8.982;2024-03-06T03:04:01;13.10;;;6.90;;
17915;SDS011;9083;49.156;8.982;2024-03-06T03:06:27;14.30;;;7.43;;
17915;SDS011;9083;49.156;8.982;2024-03-06T03:08:54;14.10;;;7.20;;
17915;SDS011;9083;49.156;8.982;2024-03-06T03:11:21;14.87;;;7.40;;
17915;SDS011;9083;49.156;8.982;2024-03-06T03:13:48;15.23;;;7.30;;
17915;SDS011;9083;49.156;8.982;2024-03-06T03:16:15;14.53;;;6.57;;
17915;SDS011;9083;49.156;8.982;2024-03-06T03:18:42;11.70;;;6.80;;
17915;SDS011;9083;49.156;8.982;2024-03-06T03:21:09;12.13;;;6.87;;
17915;SDS011;9083;49.156;8.982;2024-03-06T03:23:35;13.93;;;7.00;;
17915;SDS011;9083;49.156;8.982;2024-03-06T03:26:01;12.50;;;7.20;;
17915;SDS011;9083;49.156;8.982;2024-03-06T03:28:28;12.60;;;6.60;;
17915;SDS011;9083;49.156;8.982;2024-03-06T03:30:56;8.77;;;6.40;;
17915;SDS011;9083;49.156;8.982;2024-03-06T03:33:22;7.73;;;5.67;;
17915;SDS011;9083;49.156;8.982;2024-03-06T03:35:49;10.27;;;6.20;;
17915;SDS011;9083;49.156;8.982;2024-03-06T03:38:15;7.57;;;5.70;;
17915;SDS011;9083;49.156;8.982;2024-03-06T03:40:41;7.60;;;5.87;;
17915;SDS011;9083;49.156;8.982;2024-03-06T03:43:08;12.33;;;6.03;;
17915;SDS011;9083;49.156;8.982;2024-03-06T03:45:34;11.83;;;6.53;;
17915;SDS011;9083;49.156;8.982;2024-03-06T03:48:02;7.73;;;5.90;;
17915;SDS011;9083;49.156;8.982;2024-03-06T03:50:28;10.60;;;6.07;;
17915;SDS011;9083;49.156;8.982;2024-03-06T03:52:55;7.97;;;6.07;;
17915;SDS011;9083;49.156;8.982;2024-03-06T03:55:23;9.37;;;5.80;;
17915;SDS011;9083;49.156;8.982;2024-03-06T03:57:49;10.13;;;6.70;;
17915;SDS011;9083;49.156;8.982;2024-03-06T04:00:16;6.80;;;6.10;;
17915;SDS011;9083;49.156;8.982;2024-03-06T04:02:42;10.00;;;6.10;;
17915;SDS011;9083;49.156;8.982;2024-03-06T04:05:10;12.87;;;7.00;;
17915;SDS011;9083;49.156;8.982;2024-03-06T04:07:36;9.00;;;7.20;;
17915;SDS011;9083;49.156;8.982;2024-03-06T04:10:02;9.43;;;6.80;;
17915;SDS011;9083;49.156;8.982;2024-03-06T04:12:29;7.13;;;6.43;;
17915;SDS011;9083;49.156;8.982;2024-03-06T04:14:55;10.20;;;7.03;;
17915;SDS011;9083;49.156;8.982;2024-03-06T04:17:22;6.87;;;6.07;;
17915;SDS011;9083;49.156;8.982;2024-03-06T04:19:49;8.00;;;6.00;;
17915;SDS011;9083;49.156;8.982;2024-03-06T04:22:19;10.20;;;5.80;;
17915;SDS011;9083;49.156;8.982;2024-03-06T04:24:45;8.80;;;6.63;;
17915;SDS011;9083;49.156;8.982;2024-03-06T04:27:12;8.50;;;5.50;;
17915;SDS011;9083;49.156;8.982;2024-03-06T04:29:38;9.50;;;5.97;;
17915;SDS011;9083;49.156;8.982;2024-03-06T04:32:04;7.07;;;5.90;;
17915;SDS011;9083;49.156;8.982;2024-03-06T04:34:31;9.20;;;5.70;;
17915;SDS011;9083;49.156;8.982;2024-03-06T04:36:57;8.97;;;6.30;;
17915;SDS011;9083;49.156;8.982;2024-03-06T04:39:24;6.90;;;6.20;;
17915;SDS011;9083;49.156;8.982;2024-03-06T04:41:51;11.50;;;6.30;;
17915;SDS011;9083;49.156;8.982;2024-03-06T04:44:17;7.87;;;5.87;;
17915;SDS011;9083;49.156;8.982;2024-03-06T04:46:43;10.30;;;6.30;;
17915;SDS011;9083;49.156;8.982;2024-03-06T04:49:09;5.97;;;5.37;;
17915;SDS011;9083;49.156;8.982;2024-03-06T04:51:36;7.33;;;6.10;;
17915;SDS011;9083;49.156;8.982;2024-03-06T04:54:02;8.53;;;5.67;;
17915;SDS011;9083;49.156;8.982;2024-03-06T04:56:30;12.57;;;7.87;;
17915;SDS011;9083;49.156;8.982;2024-03-06T04:58:56;8.87;;;7.00;;
17915;SDS011;9083;49.156;8.982;2024-03-06T05:01:27;6.73;;;6.03;;
17915;SDS011;9083;49.156;8.982;2024-03-06T05:03:54;6.60;;;5.37;;
17915;SDS011;9083;49.156;8.982;2024-03-06T05:06:20;8.50;;;6.70;;
17915;SDS011;9083;49.156;8.982;2024-03-06T05:08:47;8.20;;;5.70;;
17915;SDS011;9083;49.156;8.982;2024-03-06T05:11:13;6.60;;;5.50;;
17915;SDS011;9083;49.156;8.982;2024-03-06T05:13:41;10.87;;;6.37;;
17915;SDS011;9083;49.156;8.982;2024-03-06T05:16:07;8.03;;;5.50;;
17915;SDS011;9083;49.156;8.982;2024-03-06T05:18:34;11.13;;;5.73;;
17915;SDS011;9083;49.156;8.982;2024-03-06T05:21:00;11.73;;;6.10;;
17915;SDS011;9083;49.156;8.982;2024-03-06T05:23:26;7.27;;;5.60;;
17915;SDS011;9083;49.156;8.982;2024-03-06T05:25:53;8.77;;;6.17;;
17915;SDS011;9083;49.156;8.982;2024-03-06T05:28:19;9.00;;;5.97;;
17915;SDS011;9083;49.156;8.982;2024-03-06T05:30:47;8.13;;;5.37;;
17915;SDS011;9083;49.156;8.982;2024-03-06T05:33:13;12.00;;;6.03;;
17915;SDS011;9083;49.156;8.982;2024-03-06T05:35:39;9.80;;;5.27;;
17915;SDS011;9083;49.156;8.982;2024-03-06T05:38:06;8.00;;;5.53;;
17915;SDS011;9083;49.156;8.982;2024-03-06T05:40:32;15.10;;;6.33;;
17915;SDS011;9083;49.156;8.982;2024-03-06T05:43:02;11.60;;;6.37;;
17915;SDS011;9083;49.156;8.982;2024-03-06T05:45:28;33.50;;;7.63;;
17915;SDS011;9083;49.156;8.982;2024-03-06T05:47:56;25.83;;;7.57;;
17915;SDS011;9083;49.156;8.982;2024-03-06T05:50:22;13.30;;;7.67;;
17915;SDS011;9083;49.156;8.982;2024-03-06T05:52:48;16.03;;;7.00;;
17915;SDS011;9083;49.156;8.982;2024-03-06T05:55:15;13.90;;;8.00;;
17915;SDS011;9083;49.156;8.982;2024-03-06T05:57:41;15.67;;;7.20;;
17915;SDS011;9083;49.156;8.982;2024-03-06T06:00:10;10.93;;;6.87;;
17915;SDS011;9083;49.156;8.982;2024-03-06T06:02:37;16.43;;;6.87;;
17915;SDS011;9083;49.156;8.982;2024-03-06T06:05:05;20.10;;;6.77;;
17915;SDS011;9083;49.156;8.982;2024-03-06T06:07:32;23.73;;;7.97;;
17915;SDS011;9083;49.156;8.982;2024-03-06T06:09:58;18.07;;;6.60;;
17915;SDS011;9083;49.156;8.982;2024-03-06T06:12:24;29.63;;;7.70;;
17915;SDS011;9083;49.156;8.982;2024-03-06T06:14:51;13.77;;;6.63;;
17915;SDS011;9083;49.156;8.982;2024-03-06T06:17:17;15.57;;;6.23;;
17915;SDS011;9083;49.156;8.982;2024-03-06T06:19:43;11.23;;;6.70;;
17915;SDS011;9083;49.156;8.982;2024-03-06T06:22:11;14.13;;;6.77;;
17915;SDS011;9083;49.156;8.982;2024-03-06T06:24:38;13.13;;;7.17;;
17915;SDS011;9083;49.156;8.982;2024-03-06T06:27:05;9.80;;;6.73;;
17915;SDS011;9083;49.156;8.982;2024-03-06T06:29:32;15.73;;;7.53;;
17915;SDS011;9083;49.156;8.982;2024-03-06T06:31:58;15.13;;;7.47;;
17915;SDS011;9083;49.156;8.982;2024-03-06T06:34:24;11.27;;;8.07;;
17915;SDS011;9083;49.156;8.982;2024-03-06T06:36:52;10.93;;;7.23;;
17915;SDS011;9083;49.156;8.982;2024-03-06T06:39:20;7.50;;;6.57;;
17915;SDS011;9083;49.156;8.982;2024-03-06T06:41:46;7.60;;;6.13;;
17915;SDS011;9083;49.156;8.982;2024-03-06T06:44:13;11.10;;;6.87;;
17915;SDS011;9083;49.156;8.982;2024-03-06T06:46:39;11.93;;;6.63;;
17915;SDS011;9083;49.156;8.982;2024-03-06T06:49:06;13.67;;;6.83;;
17915;SDS011;9083;49.156;8.982;2024-03-06T06:51:32;11.30;;;7.03;;
17915;SDS011;9083;49.156;8.982;2024-03-06T06:53:58;12.77;;;6.87;;
17915;SDS011;9083;49.156;8.982;2024-03-06T06:56:26;11.33;;;6.63;;
17915;SDS011;9083;49.156;8.982;2024-03-06T06:58:51;12.30;;;6.77;;
17915;SDS011;9083;49.156;8.982;2024-03-06T07:01:17;11.70;;;7.20;;
17915;SDS011;9083;49.156;8.982;2024-03-06T07:03:45;6.30;;;5.47;;
17915;SDS011;9083;49.156;8.982;2024-03-06T07:06:11;8.40;;;6.30;;
17915;SDS011;9083;49.156;8.982;2024-03-06T07:08:38;9.13;;;6.63;;
17915;SDS011;9083;49.156;8.982;2024-03-06T07:11:04;10.67;;;6.20;;
17915;SDS011;9083;49.156;8.982;2024-03-06T07:13:31;12.20;;;7.00;;
17915;SDS011;9083;49.156;8.982;2024-03-06T07:15:58;8.10;;;6.50;;
17915;SDS011;9083;49.156;8.982;2024-03-06T07:18:24;9.37;;;6.53;;
17915;SDS011;9083;49.156;8.982;2024-03-06T07:20:50;9.90;;;6.03;;
17915;SDS011;9083;49.156;8.982;2024-03-06T07:23:17;10.90;;;6.73;;
17915;SDS011;9083;49.156;8.982;2024-03-06T07:25:43;9.27;;;6.00;;
17915;SDS011;9083;49.156;8.982;2024-03-06T07:28:09;9.27;;;6.77;;
17915;SDS011;9083;49.156;8.982;2024-03-06T07:30:37;9.80;;;6.60;;
17915;SDS011;9083;49.156;8.982;2024-03-06T07:33:04;10.33;;;6.83;;
17915;SDS011;9083;49.156;8.982;2024-03-06T07:35:30;8.20;;;5.67;;
17915;SDS011;9083;49.156;8.982;2024-03-06T07:37:56;10.20;;;6.50;;
17915;SDS011;9083;49.156;8.982;2024-03-06T07:40:22;9.70;;;6.43;;
17915;SDS011;9083;49.156;8.982;2024-03-06T07:42:49;9.23;;;6.70;;
17915;SDS011;9083;49.156;8.982;2024-03-06T07:45:16;10.07;;;6.50;;
17915;SDS011;9083;49.156;8.982;2024-03-06T07:47:44;9.47;;;6.53;;
17915;SDS011;9083;49.156;8.982;2024-03-06T07:50:10;9.20;;;6.53;;
17915;SDS011;9083;49.156;8.982;2024-03-06T07:52:37;14.10;;;7.03;;
17915;SDS011;9083;49.156;8.982;2024-03-06T07:55:04;9.53;;;6.53;;
17915;SDS011;9083;49.156;8.982;2024-03-06T07:57:31;12.30;;;6.73;;
17915;SDS011;9083;49.156;8.982;2024-03-06T07:59:58;9.57;;;6.23;;
17915;SDS011;9083;49.156;8.982;2024-03-06T08:02:24;9.97;;;6.00;;
17915;SDS011;9083;49.156;8.982;2024-03-06T08:04:52;8.13;;;6.40;;
17915;SDS011;9083;49.156;8.982;2024-03-06T08:07:18;7.47;;;6.00;;
17915;SDS011;9083;49.156;8.982;2024-03-06T08:09:45;13.87;;;7.87;;
17915;SDS011;9083;49.156;8.982;2024-03-06T08:12:11;11.77;;;6.30;;
17915;SDS011;9083;49.156;8.982;2024-03-06T08:14:37;8.77;;;6.60;;
17915;SDS011;9083;49.156;8.982;2024-03-06T08:17:03;10.83;;;6.47;;
17915;SDS011;9083;49.156;8.982;2024-03-06T08:19:30;10.20;;;6.30;;
17915;SDS011;9083;49.156;8.982;2024-03-06T08:21:57;9.87;;;6.27;;
17915;SDS011;9083;49.156;8.982;2024-03-06T08:24:23;11.23;;;6.47;;
17915;SDS011;9083;49.156;8.982;2024-03-06T08:26:50;11.93;;;6.27;;
17915;SDS011;9083;49.156;8.982;2024-03-06T08:29:16;9.63;;;6.27;;
17915;SDS011;9083;49.156;8.982;2024-03-06T08:31:43;8.53;;;6.80;;
17915;SDS011;9083;49.156;8.982;2024-03-06T08:34:09;14.20;;;6.93;;
17915;SDS011;9083;49.156;8.982;2024-03-06T08:36:35;13.47;;;6.77;;
17915;SDS011;9083;49.156;8.982;2024-03-06T08:39:03;12.43;;;6.67;;
17915;SDS011;9083;49.156;8.982;2024-03-06T08:41:30;9.77;;;6.53;;
17915;SDS011;9083;49.156;8.982;2024-03-06T08:43:56;11.53;;;6.87;;
17915;SDS011;9083;49.156;8.982;2024-03-06T08:46:22;12.77;;;7.27;;
17915;SDS011;9083;49.156;8.982;2024-03-06T08:48:49;16.43;;;7.43;;
17915;SDS011;9083;49.156;8.982;2024-03-06T08:51:16;11.63;;;6.87;;
17915;SDS011;9083;49.156;8.982;2024-03-06T08:53:42;10.50;;;7.33;;
17915;SDS011;9083;49.156;8.982;2024-03-06T08:56:10;10.83;;;7.17;;
17915;SDS011;9083;49.156;8.982;2024-03-06T08:58:36;10.87;;;7.70;;
17915;SDS011;9083;49.156;8.982;2024-03-06T09:01:02;11.57;;;7.77;;
17915;SDS011;9083;49.156;8.982;2024-03-06T09:03:29;13.20;;;7.43;;
17915;SDS011;9083;49.156;8.982;2024-03-06T09:05:56;14.67;;;7.53;;
17915;SDS011;9083;49.156;8.982;2024-03-06T09:08:22;12.70;;;7.20;;
17915;SDS011;9083;49.156;8.982;2024-03-06T09:10:48;14.63;;;8.00;;
17915;SDS011;9083;49.156;8.982;2024-03-06T09:13:15;13.70;;;8.23;;
17915;SDS011;9083;49.156;8.982;2024-03-06T09:15:42;12.20;;;7.13;;
17915;SDS011;9083;49.156;8.982;2024-03-06T09:18:08;10.57;;;7.43;;
17915;SDS011;9083;49.156;8.982;2024-03-06T09:20:34;14.23;;;8.03;;
17915;SDS011;9083;49.156;8.982;2024-03-06T09:23:01;15.13;;;8.90;;
17915;SDS011;9083;49.156;8.982;2024-03-06T09:25:28;16.07;;;8.57;;
17915;SDS011;9083;49.156;8.982;2024-03-06T09:27:54;10.90;;;7.63;;
17915;SDS011;9083;49.156;8.982;2024-03-06T09:30:22;12.03;;;7.40;;
17915;SDS011;9083;49.156;8.982;2024-03-06T09:32:48;11.37;;;7.20;;
17915;SDS011;9083;49.156;8.982;2024-03-06T09:35:14;17.77;;;9.90;;
17915;SDS011;9083;49.156;8.982;2024-03-06T09:37:42;18.23;;;9.30;;
17915;SDS011;9083;49.156;8.982;2024-03-06T09:40:08;13.87;;;8.50;;
17915;SDS011;9083;49.156;8.982;2024-03-06T09:42:35;16.47;;;9.10;;
17915;SDS011;9083;49.156;8.982;2024-03-06T09:45:01;16.67;;;9.90;;
17915;SDS011;9083;49.156;8.982;2024-03-06T09:47:29;14.90;;;9.30;;
17915;SDS011;9083;49.156;8.982;2024-03-06T09:49:57;21.60;;;9.20;;
17915;SDS011;9083;49.156;8.982;2024-03-06T09:52:23;16.53;;;9.60;;
17915;SDS011;9083;49.156;8.982;2024-03-06T09:54:50;18.30;;;9.73;;
17915;SDS011;9083;49.156;8.982;2024-03-06T09:57:16;16.83;;;8.83;;
17915;SDS011;9083;49.156;8.982;2024-03-06T09:59:43;16.60;;;9.73;;
17915;SDS011;9083;49.156;8.982;2024-03-06T10:02:15;19.20;;;10.17;;
17915;SDS011;9083;49.156;8.982;2024-03-06T10:04:46;21.70;;;11.07;;
17915;SDS011;9083;49.156;8.982;2024-03-06T10:07:12;15.30;;;9.43;;
17915;SDS011;9083;49.156;8.982;2024-03-06T10:09:39;17.80;;;9.53;;
17915;SDS011;9083;49.156;8.982;2024-03-06T10:12:05;17.80;;;10.03;;
17915;SDS011;9083;49.156;8.982;2024-03-06T10:14:32;15.57;;;10.00;;
17915;SDS011;9083;49.156;8.982;2024-03-06T10:16:58;16.67;;;10.03;;
17915;SDS011;9083;49.156;8.982;2024-03-06T10:19:25;15.20;;;9.40;;
17915;SDS011;9083;49.156;8.982;2024-03-06T10:21:54;16.23;;;10.33;;
17915;SDS011;9083;49.156;8.982;2024-03-06T10:24:22;13.90;;;9.87;;
17915;SDS011;9083;49.156;8.982;2024-03-06T10:26:49;20.90;;;10.90;;
17915;SDS011;9083;49.156;8.982;2024-03-06T10:29:16;17.27;;;10.77;;
17915;SDS011;9083;49.156;8.982;2024-03-06T10:31:47;19.03;;;10.70;;
17915;SDS011;9083;49.156;8.982;2024-03-06T10:34:13;20.80;;;11.73;;
17915;SDS011;9083;49.156;8.982;2024-03-06T10:36:38;20.60;;;10.80;;
17915;SDS011;9083;49.156;8.982;2024-03-06T10:39:07;24.83;;;11.90;;
17915;SDS011;9083;49.156;8.982;2024-03-06T10:41:33;24.07;;;12.33;;
17915;SDS011;9083;49.156;8.982;2024-03-06T10:44:00;22.53;;;11.33;;
17915;SDS011;9083;49.156;8.982;2024-03-06T10:46:28;18.03;;;10.63;;
17915;SDS011;9083;49.156;8.982;2024-03-06T10:48:55;16.73;;;9.93;;
17915;SDS011;9083;49.156;8.982;2024-03-06T10:51:23;16.97;;;10.47;;
17915;SDS011;9083;49.156;8.982;2024-03-06T10:53:50;18.47;;;11.47;;
17915;SDS011;9083;49.156;8.982;2024-03-06T10:56:18;20.67;;;11.47;;
17915;SDS011;9083;49.156;8.982;2024-03-06T10:58:47;15.60;;;10.23;;
17915;SDS011;9083;49.156;8.982;2024-03-06T11:01:15;15.77;;;10.73;;
17915;SDS011;9083;49.156;8.982;2024-03-06T11:03:42;21.77;;;11.47;;
17915;SDS011;9083;49.156;8.982;2024-03-06T11:06:08;22.03;;;11.57;;
17915;SDS011;9083;49.156;8.982;2024-03-06T11:08:34;20.10;;;11.57;;
17915;SDS011;9083;49.156;8.982;2024-03-06T11:11:21;21.70;;;11.70;;
17915;SDS011;9083;49.156;8.982;2024-03-06T11:13:47;22.73;;;12.27;;
17915;SDS011;9083;49.156;8.982;2024-03-06T11:16:14;19.17;;;11.83;;
17915;SDS011;9083;49.156;8.982;2024-03-06T11:18:40;20.30;;;12.57;;
17915;SDS011;9083;49.156;8.982;2024-03-06T11:26:31;19.33;;;13.03;;
17915;SDS011;9083;49.156;8.982;2024-03-06T11:29:01;21.13;;;12.10;;
17915;SDS011;9083;49.156;8.982;2024-03-06T11:31:27;20.97;;;12.83;;
17915;SDS011;9083;49.156;8.982;2024-03-06T11:33:53;23.93;;;12.03;;
17915;SDS011;9083;49.156;8.982;2024-03-06T11:36:21;20.97;;;12.20;;
17915;SDS011;9083;49.156;8.982;2024-03-06T11:38:50;20.87;;;11.70;;
17915;SDS011;9083;49.156;8.982;2024-03-06T11:41:18;21.00;;;11.73;;
17915;SDS011;9083;49.156;8.982;2024-03-06T11:43:45;19.00;;;11.97;;
17915;SDS011;9083;49.156;8.982;2024-03-06T11:46:15;24.00;;;12.23;;
17915;SDS011;9083;49.156;8.982;2024-03-06T11:48:42;22.30;;;11.57;;
17915;SDS011;9083;49.156;8.982;2024-03-06T11:51:10;19.40;;;11.33;;
17915;SDS011;9083;49.156;8.982;2024-03-06T11:53:36;19.37;;;11.40;;
17915;SDS011;9083;49.156;8.982;2024-03-06T11:56:05;25.17;;;11.70;;
17915;SDS011;9083;49.156;8.982;2024-03-06T11:58:32;21.33;;;11.23;;
17915;SDS011;9083;49.156;8.982;2024-03-06T12:01:00;21.40;;;11.00;;
17915;SDS011;9083;49.156;8.982;2024-03-06T12:03:27;23.23;;;11.27;;
17915;SDS011;9083;49.156;8.982;2024-03-06T12:05:52;20.17;;;9.77;;
17915;SDS011;9083;49.156;8.982;2024-03-06T12:08:19;13.97;;;9.37;;
17915;SDS011;9083;49.156;8.982;2024-03-06T12:10:46;15.37;;;8.80;;
17915;SDS011;9083;49.156;8.982;2024-03-06T12:13:13;19.97;;;9.00;;
17915;SDS011;9083;49.156;8.982;2024-03-06T12:15:42;17.77;;;10.03;;
17915;SDS011;9083;49.156;8.982;2024-03-06T12:18:09;21.93;;;11.30;;
17915;SDS011;9083;49.156;8.982;2024-03-06T12:20:39;16.80;;;10.40;;
17915;SDS011;9083;49.156;8.982;2024-03-06T12:23:06;20.00;;;10.77;;
17915;SDS011;9083;49.156;8.982;2024-03-06T12:25:32;27.00;;;12.40;;
17915;SDS011;9083;49.156;8.982;2024-03-06T12:28:06;19.40;;;11.30;;
17915;SDS011;9083;49.156;8.982;2024-03-06T12:30:38;21.47;;;11.53;;
17915;SDS011;9083;49.156;8.982;2024-03-06T12:33:06;24.57;;;12.53;;
17915;SDS011;9083;49.156;8.982;2024-03-06T12:35:34;29.10;;;12.50;;
17915;SDS011;9083;49.156;8.982;2024-03-06T12:38:00;27.67;;;15.10;;
17915;SDS011;9083;49.156;8.982;2024-03-06T12:40:37;38.47;;;18.17;;
17915;SDS011;9083;49.156;8.982;2024-03-06T12:43:04;31.33;;;15.07;;
17915;SDS011;9083;49.156;8.982;2024-03-06T12:45:30;29.30;;;14.77;;
17915;SDS011;9083;49.156;8.982;2024-03-06T12:47:56;26.10;;;13.33;;
17915;SDS011;9083;49.156;8.982;2024-03-06T12:50:23;34.07;;;15.10;;
17915;SDS011;9083;49.156;8.982;2024-03-06T12:52:51;27.67;;;14.00;;
17915;SDS011;9083;49.156;8.982;2024-03-06T12:55:18;25.67;;;12.50;;
17915;SDS011;9083;49.156;8.982;2024-03-06T12:57:45;24.97;;;12.23;;
17915;SDS011;9083;49.156;8.982;2024-03-06T13:00:11;28.90;;;13.20;;
17915;SDS011;9083;49.156;8.982;2024-03-06T13:02:40;25.87;;;13.97;;
17915;SDS011;9083;49.156;8.982;2024-03-06T13:05:07;29.87;;;14.50;;
17915;SDS011;9083;49.156;8.982;2024-03-06T13:07:33;37.40;;;14.03;;
17915;SDS011;9083;49.156;8.982;2024-03-06T13:10:02;28.30;;;15.40;;
17915;SDS011;9083;49.156;8.982;2024-03-06T13:12:28;31.27;;;15.17;;
17915;SDS011;9083;49.156;8.982;2024-03-06T13:14:55;28.60;;;14.47;;
17915;SDS011;9083;49.156;8.982;2024-03-06T13:17:21;28.47;;;13.20;;
17915;SDS011;9083;49.156;8.982;2024-03-06T13:19:47;30.87;;;15.10;;
17915;SDS011;9083;49.156;8.982;2024-03-06T13:22:14;35.40;;;14.00;;
17915;SDS011;9083;49.156;8.982;2024-03-06T13:24:40;23.73;;;11.50;;
17915;SDS011;9083;49.156;8.982;2024-03-06T13:27:08;24.10;;;12.57;;
17915;SDS011;9083;49.156;8.982;2024-03-06T13:29:34;24.70;;;13.07;;
17915;SDS011;9083;49.156;8.982;2024-03-06T13:32:00;26.27;;;13.27;;
17915;SDS011;9083;49.156;8.982;2024-03-06T13:34:26;22.37;;;13.63;;
17915;SDS011;9083;49.156;8.982;2024-03-06T13:36:55;31.80;;;16.00;;
17915;SDS011;9083;49.156;8.982;2024-03-06T13:39:21;41.77;;;19.17;;
17915;SDS011;9083;49.156;8.982;2024-03-06T13:41:48;48.93;;;22.30;;
17915;SDS011;9083;49.156;8.982;2024-03-06T13:44:15;32.10;;;17.53;;
17915;SDS011;9083;49.156;8.982;2024-03-06T13:46:42;28.50;;;14.70;;
17915;SDS011;9083;49.156;8.982;2024-03-06T13:49:11;24.90;;;13.13;;
17915;SDS011;9083;49.156;8.982;2024-03-06T13:51:48;23.70;;;12.40;;
17915;SDS011;9083;49.156;8.982;2024-03-06T13:54:14;27.93;;;12.63;;
17915;SDS011;9083;49.156;8.982;2024-03-06T13:56:41;22.93;;;13.17;;
17915;SDS011;9083;49.156;8.982;2024-03-06T13:59:07;26.50;;;13.47;;
17915;SDS011;9083;49.156;8.982;2024-03-06T14:01:35;32.00;;;14.27;;
17915;SDS011;9083;49.156;8.982;2024-03-06T14:04:01;27.63;;;15.20;;
17915;SDS011;9083;49.156;8.982;2024-03-06T14:06:27;34.47;;;14.40;;
17915;SDS011;9083;49.156;8.982;2024-03-06T14:08:53;34.17;;;17.23;;
17915;SDS011;9083;49.156;8.982;2024-03-06T14:11:20;29.57;;;15.53;;
17915;SDS011;9083;49.156;8.982;2024-03-06T14:13:46;30.77;;;13.50;;
17915;SDS011;9083;49.156;8.982;2024-03-06T14:16:13;24.37;;;13.93;;
17915;SDS011;9083;49.156;8.982;2024-03-06T14:18:41;29.27;;;14.20;;
17915;SDS011;9083;49.156;8.982;2024-03-06T14:21:07;27.57;;;14.53;;
17915;SDS011;9083;49.156;8.982;2024-03-06T14:23:34;30.20;;;15.17;;
17915;SDS011;9083;49.156;8.982;2024-03-06T14:26:00;37.07;;;16.77;;
17915;SDS011;9083;49.156;8.982;2024-03-06T14:28:27;31.10;;;14.17;;
17915;SDS011;9083;49.156;8.982;2024-03-06T14:30:53;33.23;;;14.37;;
17915;SDS011;9083;49.156;8.982;2024-03-06T14:33:20;25.87;;;13.50;;
17915;SDS011;9083;49.156;8.982;2024-03-06T14:35:47;26.70;;;13.70;;
17915;SDS011;9083;49.156;8.982;2024-03-06T14:38:14;28.47;;;14.00;;
17915;SDS011;9083;49.156;8.982;2024-03-06T14:40:40;25.40;;;14.03;;
17915;SDS011;9083;49.156;8.982;2024-03-06T14:43:07;30.47;;;13.63;;
17915;SDS011;9083;49.156;8.982;2024-03-06T14:45:35;25.37;;;14.00;;
17915;SDS011;9083;49.156;8.982;2024-03-06T14:48:06;29.43;;;14.67;;
17915;SDS011;9083;49.156;8.982;2024-03-06T14:50:33;30.83;;;14.30;;